sensor_id;sensor_type;location;lat;lon;timestamp;pressure;altitude;pressure_sealevel;temperature;humidity
70217;BME280;65567;55.684;37.570;2024-03-02T00:02:13;100429.72;;;7.58;59.32
70217;BME280;65567;55.684;37.570;2024-03-02T00:04:40;100435.81;;;7.57;59.06
70217;BME280;65567;55.684;37.570;2024-03-02T00:07:06;100428.81;;;7.59;59.05
70217;BME280;65567;55.684;37.570;2024-03-02T00:09:33;100434.13;;;7.55;59.11
70217;BME280;65567;55.684;37.570;2024-03-02T00:12:02;100421.81;;;7.61;58.81
70217;BME280;65567;55.684;37.570;2024-03-02T00:14:31;100423.47;;;7.66;58.51
70217;BME280;65567;55.684;37.570;2024-03-02T00:16:57;100410.56;;;7.58;58.53
70217;BME280;65567;55.684;37.570;2024-03-02T00:19:24;100426.22;;;7.58;58.80
70217;BME280;65567;55.684;37.570;2024-03-02T00:21:50;100417.47;;;7.60;58.46
70217;BME280;65567;55.684;37.570;2024-03-02T00:24:32;100415.72;;;7.63;58.49
70217;BME280;65567;55.684;37.570;2024-03-02T00:26:59;100399.22;;;7.60;58.02
70217;BME280;65567;55.684;37.570;2024-03-02T00:29:25;100418.22;;;7.67;58.26
70217;BME280;65567;55.684;37.570;2024-03-02T00:31:53;100416.59;;;7.61;58.32
70217;BME280;65567;55.684;37.570;2024-03-02T00:34:23;100414.84;;;7.64;58.13
70217;BME280;65567;55.684;37.570;2024-03-02T00:36:49;100421.03;;;7.56;58.21
70217;BME280;65567;55.684;37.570;2024-03-02T00:39:16;100424.34;;;7.66;57.88
70217;BME280;65567;55.684;37.570;2024-03-02T00:41:44;100418.06;;;7.76;57.70
70217;BME280;65567;55.684;37.570;2024-03-02T00:44:15;100403.25;;;7.77;57.32
70217;BME280;65567;55.684;37.570;2024-03-02T00:46:42;100417.91;;;7.84;57.73
70217;BME280;65567;55.684;37.570;2024-03-02T00:51:37;100422.06;;;7.93;57.59
70217;BME280;65567;55.684;37.570;2024-03-02T00:54:08;100415.09;;;7.93;57.69
70217;BME280;65567;55.684;37.570;2024-03-02T00:56:35;100416.63;;;8.04;57.33
70217;BME280;65567;55.684;37.570;2024-03-02T00:59:04;100420.94;;;8.05;57.32
70217;BME280;65567;55.684;37.570;2024-03-02T01:01:30;100420.00;;;8.09;56.90
70217;BME280;65567;55.684;37.570;2024-03-02T01:03:55;100422.41;;;8.18;56.67
70217;BME280;65567;55.684;37.570;2024-03-02T01:06:21;100425.81;;;8.20;56.54
70217;BME280;65567;55.684;37.570;2024-03-02T01:08:47;100422.63;;;8.09;56.51
70217;BME280;65567;55.684;37.570;2024-03-02T01:11:16;100418.28;;;8.08;56.47
70217;BME280;65567;55.684;37.570;2024-03-02T01:13:46;100433.78;;;8.16;56.65
70217;BME280;65567;55.684;37.570;2024-03-02T01:16:12;100440.69;;;8.18;56.11
70217;BME280;65567;55.684;37.570;2024-03-02T01:18:42;100437.19;;;8.18;56.19
70217;BME280;65567;55.684;37.570;2024-03-02T01:21:08;100439.03;;;8.14;56.14
70217;BME280;65567;55.684;37.570;2024-03-02T01:23:34;100447.75;;;8.13;56.04
70217;BME280;65567;55.684;37.570;2024-03-02T01:26:00;100437.56;;;8.01;56.67
70217;BME280;65567;55.684;37.570;2024-03-02T01:28:25;100429.06;;;7.91;56.84
70217;BME280;65567;55.684;37.570;2024-03-02T01:30:51;100429.25;;;7.80;56.94
70217;BME280;65567;55.684;37.570;2024-03-02T01:33:18;100430.09;;;7.82;57.25
70217;BME280;65567;55.684;37.570;2024-03-02T01:35:44;100437.09;;;7.82;57.41
70217;BME280;65567;55.684;37.570;2024-03-02T01:38:10;100432.63;;;7.85;56.95
70217;BME280;65567;55.684;37.570;2024-03-02T01:40:37;100430.00;;;7.88;57.12
70217;BME280;65567;55.684;37.570;2024-03-02T01:43:06;100434.19;;;7.96;56.79
70217;BME280;65567;55.684;37.570;2024-03-02T01:45:33;100438.44;;;8.00;56.89
70217;BME280;65567;55.684;37.570;2024-03-02T01:47:59;100438.31;;;8.06;56.94
70217;BME280;65567;55.684;37.570;2024-03-02T01:50:31;100435.53;;;8.14;56.71
70217;BME280;65567;55.684;37.570;2024-03-02T01:52:58;100426.91;;;8.10;56.47
70217;BME280;65567;55.684;37.570;2024-03-02T01:55:24;100423.38;;;8.13;56.95
70217;BME280;65567;55.684;37.570;2024-03-02T01:57:51;100429.47;;;8.13;56.72
70217;BME280;65567;55.684;37.570;2024-03-02T02:00:21;100431.97;;;8.19;56.63
70217;BME280;65567;55.684;37.570;2024-03-02T02:02:50;100431.13;;;8.17;56.52
70217;BME280;65567;55.684;37.570;2024-03-02T02:05:16;100437.06;;;8.24;56.21
70217;BME280;65567;55.684;37.570;2024-03-02T02:07:43;100436.44;;;8.14;56.40
70217;BME280;65567;55.684;37.570;2024-03-02T02:10:10;100429.53;;;8.10;56.46
70217;BME280;65567;55.684;37.570;2024-03-02T02:12:39;100433.06;;;8.07;56.45
70217;BME280;65567;55.684;37.570;2024-03-02T02:15:30;100439.97;;;8.10;56.36
70217;BME280;65567;55.684;37.570;2024-03-02T02:17:57;100438.31;;;8.06;56.30
70217;BME280;65567;55.684;37.570;2024-03-02T02:20:23;100435.63;;;8.10;56.54
70217;BME280;65567;55.684;37.570;2024-03-02T02:23:00;100444.34;;;8.09;56.37
70217;BME280;65567;55.684;37.570;2024-03-02T02:25:27;100440.84;;;8.10;56.38
70217;BME280;65567;55.684;37.570;2024-03-02T02:27:54;100434.03;;;8.03;56.43
70217;BME280;65567;55.684;37.570;2024-03-02T02:30:28;100435.94;;;7.95;56.72
70217;BME280;65567;55.684;37.570;2024-03-02T02:32:54;100442.00;;;7.96;56.66
70217;BME280;65567;55.684;37.570;2024-03-02T02:35:20;100448.00;;;8.01;56.55
70217;BME280;65567;55.684;37.570;2024-03-02T02:37:47;100442.81;;;7.99;56.40
70217;BME280;65567;55.684;37.570;2024-03-02T02:40:14;100447.47;;;7.83;57.16
70217;BME280;65567;55.684;37.570;2024-03-02T02:42:40;100450.16;;;7.78;57.19
70217;BME280;65567;55.684;37.570;2024-03-02T02:45:06;100446.56;;;7.86;57.10
70217;BME280;65567;55.684;37.570;2024-03-02T02:47:32;100437.91;;;7.84;56.65
70217;BME280;65567;55.684;37.570;2024-03-02T02:50:02;100448.59;;;7.70;57.53
70217;BME280;65567;55.684;37.570;2024-03-02T02:52:36;100435.50;;;7.73;57.03
70217;BME280;65567;55.684;37.570;2024-03-02T02:55:08;100447.47;;;7.83;57.01
70217;BME280;65567;55.684;37.570;2024-03-02T02:57:35;100449.06;;;7.92;56.65
70217;BME280;65567;55.684;37.570;2024-03-02T03:00:04;100434.41;;;7.85;56.45
70217;BME280;65567;55.684;37.570;2024-03-02T03:02:31;100441.28;;;7.89;56.52
70217;BME280;65567;55.684;37.570;2024-03-02T03:04:57;100442.13;;;7.91;56.72
70217;BME280;65567;55.684;37.570;2024-03-02T03:07:23;100442.38;;;7.77;56.71
70217;BME280;65567;55.684;37.570;2024-03-02T03:09:49;100444.09;;;7.78;57.01
70217;BME280;65567;55.684;37.570;2024-03-02T03:12:14;100452.16;;;7.66;57.08
70217;BME280;65567;55.684;37.570;2024-03-02T03:14:40;100458.28;;;7.63;57.32
70217;BME280;65567;55.684;37.570;2024-03-02T03:17:07;100458.09;;;7.74;57.06
70217;BME280;65567;55.684;37.570;2024-03-02T03:19:33;100453.81;;;7.71;57.17
70217;BME280;65567;55.684;37.570;2024-03-02T03:21:59;100458.19;;;7.69;56.98
70217;BME280;65567;55.684;37.570;2024-03-02T03:24:25;100459.03;;;7.70;57.26
70217;BME280;65567;55.684;37.570;2024-03-02T03:26:51;100451.16;;;7.73;57.21
70217;BME280;65567;55.684;37.570;2024-03-02T03:29:17;100451.19;;;7.70;57.30
70217;BME280;65567;55.684;37.570;2024-03-02T03:31:43;100449.81;;;7.50;57.43
70217;BME280;65567;55.684;37.570;2024-03-02T03:34:08;100445.56;;;7.46;58.11
70217;BME280;65567;55.684;37.570;2024-03-02T03:36:37;100452.50;;;7.47;58.11
70217;BME280;65567;55.684;37.570;2024-03-02T03:39:03;100445.63;;;7.43;58.09
70217;BME280;65567;55.684;37.570;2024-03-02T03:41:31;100449.34;;;7.28;58.78
70217;BME280;65567;55.684;37.570;2024-03-02T03:43:57;100441.53;;;7.30;58.65
70217;BME280;65567;55.684;37.570;2024-03-02T03:46:23;100447.47;;;7.38;58.17
70217;BME280;65567;55.684;37.570;2024-03-02T03:48:57;100438.94;;;7.28;58.45
70217;BME280;65567;55.684;37.570;2024-03-02T03:51:23;100450.09;;;7.35;58.17
70217;BME280;65567;55.684;37.570;2024-03-02T03:53:49;100446.59;;;7.39;57.96
70217;BME280;65567;55.684;37.570;2024-03-02T03:56:15;100446.59;;;7.37;58.15
70217;BME280;65567;55.684;37.570;2024-03-02T03:58:41;100442.97;;;7.46;57.88
70217;BME280;65567;55.684;37.570;2024-03-02T04:01:07;100435.25;;;7.40;57.71
70217;BME280;65567;55.684;37.570;2024-03-02T04:03:33;100439.59;;;7.39;57.98
70217;BME280;65567;55.684;37.570;2024-03-02T04:05:59;100440.59;;;7.34;57.96
70217;BME280;65567;55.684;37.570;2024-03-02T04:08:25;100432.81;;;7.31;58.09
70217;BME280;65567;55.684;37.570;2024-03-02T04:10:51;100441.47;;;7.33;58.19
70217;BME280;65567;55.684;37.570;2024-03-02T04:13:16;100441.56;;;7.26;58.09
70217;BME280;65567;55.684;37.570;2024-03-02T04:15:42;100443.38;;;7.24;58.35
70217;BME280;65567;55.684;37.570;2024-03-02T04:18:08;100445.19;;;7.19;58.52
70217;BME280;65567;55.684;37.570;2024-03-02T04:20:34;100446.88;;;7.20;58.25
70217;BME280;65567;55.684;37.570;2024-03-02T04:23:00;100450.41;;;7.19;58.36
70217;BME280;65567;55.684;37.570;2024-03-02T04:25:26;100452.94;;;7.22;58.49
70217;BME280;65567;55.684;37.570;2024-03-02T04:27:52;100449.34;;;7.30;58.25
70217;BME280;65567;55.684;37.570;2024-03-02T04:30:18;100460.59;;;7.32;58.13
70217;BME280;65567;55.684;37.570;2024-03-02T04:32:44;100443.38;;;7.24;58.20
70217;BME280;65567;55.684;37.570;2024-03-02T04:35:14;100443.47;;;7.18;58.53
70217;BME280;65567;55.684;37.570;2024-03-02T04:37:40;100447.69;;;7.24;58.37
70217;BME280;65567;55.684;37.570;2024-03-02T04:40:09;100446.75;;;7.30;58.42
70217;BME280;65567;55.684;37.570;2024-03-02T04:42:35;100450.28;;;7.25;58.19
70217;BME280;65567;55.684;37.570;2024-03-02T04:45:01;100443.41;;;7.21;58.59
70217;BME280;65567;55.684;37.570;2024-03-02T04:47:27;100452.09;;;7.20;58.57
70217;BME280;65567;55.684;37.570;2024-03-02T04:49:53;100451.38;;;7.12;58.73
70217;BME280;65567;55.684;37.570;2024-03-02T04:52:19;100450.50;;;7.13;58.56
70217;BME280;65567;55.684;37.570;2024-03-02T04:54:44;100447.97;;;7.07;58.80
70217;BME280;65567;55.684;37.570;2024-03-02T04:57:28;100441.09;;;7.03;58.90
70217;BME280;65567;55.684;37.570;2024-03-02T04:59:54;100442.06;;;6.99;58.97
70217;BME280;65567;55.684;37.570;2024-03-02T05:02:21;100455.72;;;7.13;58.70
70217;BME280;65567;55.684;37.570;2024-03-02T05:04:47;100446.09;;;7.15;58.59
70217;BME280;65567;55.684;37.570;2024-03-02T05:07:14;100448.56;;;7.23;58.53
70217;BME280;65567;55.684;37.570;2024-03-02T05:09:40;100445.06;;;7.25;58.24
70217;BME280;65567;55.684;37.570;2024-03-02T05:12:06;100452.06;;;7.23;58.28
70217;BME280;65567;55.684;37.570;2024-03-02T05:14:50;100452.09;;;7.20;58.06
70217;BME280;65567;55.684;37.570;2024-03-02T05:17:16;100447.00;;;7.13;58.26
70217;BME280;65567;55.684;37.570;2024-03-02T05:19:41;100446.19;;;7.10;58.42
70217;BME280;65567;55.684;37.570;2024-03-02T05:22:07;100435.72;;;7.14;58.56
70217;BME280;65567;55.684;37.570;2024-03-02T05:24:33;100442.66;;;7.15;58.58
70217;BME280;65567;55.684;37.570;2024-03-02T05:26:59;100455.53;;;7.22;58.23
70217;BME280;65567;55.684;37.570;2024-03-02T05:29:25;100450.16;;;7.32;57.88
70217;BME280;65567;55.684;37.570;2024-03-02T05:31:51;100452.84;;;7.28;58.14
70217;BME280;65567;55.684;37.570;2024-03-02T05:34:17;100447.72;;;7.22;58.16
70217;BME280;65567;55.684;37.570;2024-03-02T05:36:45;100457.81;;;7.41;57.66
70217;BME280;65567;55.684;37.570;2024-03-02T05:39:11;100450.09;;;7.36;57.90
70217;BME280;65567;55.684;37.570;2024-03-02T05:41:37;100457.91;;;7.35;57.96
70217;BME280;65567;55.684;37.570;2024-03-02T05:44:05;100458.03;;;7.30;57.63
70217;BME280;65567;55.684;37.570;2024-03-02T05:46:31;100457.22;;;7.26;57.75
70217;BME280;65567;55.684;37.570;2024-03-02T05:48:59;100455.44;;;7.28;57.80
70217;BME280;65567;55.684;37.570;2024-03-02T05:51:25;100454.69;;;7.22;58.04
70217;BME280;65567;55.684;37.570;2024-03-02T05:53:51;100461.66;;;7.20;58.30
70217;BME280;65567;55.684;37.570;2024-03-02T05:56:16;100464.84;;;7.36;57.57
70217;BME280;65567;55.684;37.570;2024-03-02T05:58:42;100470.75;;;7.47;57.54
70217;BME280;65567;55.684;37.570;2024-03-02T06:01:34;100453.63;;;7.34;57.41
70217;BME280;65567;55.684;37.570;2024-03-02T06:04:00;100465.59;;;7.44;57.54
70217;BME280;65567;55.684;37.570;2024-03-02T06:06:26;100470.81;;;7.44;57.29
70217;BME280;65567;55.684;37.570;2024-03-02T06:08:52;100474.16;;;7.51;57.08
70217;BME280;65567;55.684;37.570;2024-03-02T06:11:21;100466.41;;;7.46;57.35
70217;BME280;65567;55.684;37.570;2024-03-02T06:13:47;100450.81;;;7.44;57.03
70217;BME280;65567;55.684;37.570;2024-03-02T06:16:13;100465.59;;;7.44;57.23
70217;BME280;65567;55.684;37.570;2024-03-02T06:18:39;100466.44;;;7.44;57.43
70217;BME280;65567;55.684;37.570;2024-03-02T06:21:08;100464.72;;;7.43;57.53
70217;BME280;65567;55.684;37.570;2024-03-02T06:23:33;100463.63;;;7.55;57.15
70217;BME280;65567;55.684;37.570;2024-03-02T06:26:03;100456.81;;;7.50;56.92
70217;BME280;65567;55.684;37.570;2024-03-02T06:28:29;100474.84;;;7.60;56.79
70217;BME280;65567;55.684;37.570;2024-03-02T06:30:55;100468.16;;;7.47;56.92
70217;BME280;65567;55.684;37.570;2024-03-02T06:33:20;100471.69;;;7.43;56.95
70217;BME280;65567;55.684;37.570;2024-03-02T06:35:46;100473.50;;;7.39;57.37
70217;BME280;65567;55.684;37.570;2024-03-02T06:38:12;100458.03;;;7.30;57.50
70217;BME280;65567;55.684;37.570;2024-03-02T06:40:38;100461.47;;;7.31;57.27
70217;BME280;65567;55.684;37.570;2024-03-02T06:43:05;100465.75;;;7.36;57.40
70217;BME280;65567;55.684;37.570;2024-03-02T06:45:30;100464.47;;;7.09;57.94
70217;BME280;65567;55.684;37.570;2024-03-02T06:47:56;100466.50;;;7.43;57.61
70217;BME280;65567;55.684;37.570;2024-03-02T06:50:22;100481.78;;;7.61;56.78
70217;BME280;65567;55.684;37.570;2024-03-02T06:52:48;100464.25;;;7.70;56.22
70217;BME280;65567;55.684;37.570;2024-03-02T06:55:14;100469.28;;;7.81;56.26
70217;BME280;65567;55.684;37.570;2024-03-02T06:57:40;100456.25;;;7.79;55.60
70217;BME280;65567;55.684;37.570;2024-03-02T07:00:06;100467.47;;;7.83;55.86
70217;BME280;65567;55.684;37.570;2024-03-02T07:02:35;100472.63;;;7.87;55.64
70217;BME280;65567;55.684;37.570;2024-03-02T07:05:02;100466.56;;;7.85;55.87
70217;BME280;65567;55.684;37.570;2024-03-02T07:07:28;100475.16;;;7.92;55.78
70217;BME280;65567;55.684;37.570;2024-03-02T07:09:54;100478.69;;;7.89;55.75
70217;BME280;65567;55.684;37.570;2024-03-02T07:12:20;100473.19;;;8.02;55.43
70217;BME280;65567;55.684;37.570;2024-03-02T07:14:46;100470.34;;;8.13;54.92
70217;BME280;65567;55.684;37.570;2024-03-02T07:17:32;100467.78;;;8.11;55.28
70217;BME280;65567;55.684;37.570;2024-03-02T07:19:58;100470.72;;;8.38;54.81
70217;BME280;65567;55.684;37.570;2024-03-02T07:22:24;100474.94;;;8.43;54.02
70217;BME280;65567;55.684;37.570;2024-03-02T07:24:50;100476.44;;;8.55;53.78
70217;BME280;65567;55.684;37.570;2024-03-02T07:27:17;100472.19;;;8.51;53.57
70217;BME280;65567;55.684;37.570;2024-03-02T07:29:43;100474.72;;;8.56;53.12
70217;BME280;65567;55.684;37.570;2024-03-02T07:32:10;100473.13;;;8.49;53.14
70217;BME280;65567;55.684;37.570;2024-03-02T07:34:38;100468.59;;;8.55;53.22
70217;BME280;65567;55.684;37.570;2024-03-02T07:37:04;100470.84;;;8.72;53.02
70217;BME280;65567;55.684;37.570;2024-03-02T07:39:30;100468.75;;;8.88;52.55
70217;BME280;65567;55.684;37.570;2024-03-02T07:41:56;100465.22;;;8.89;52.16
70217;BME280;65567;55.684;37.570;2024-03-02T07:44:22;100456.84;;;9.11;52.20
70217;BME280;65567;55.684;37.570;2024-03-02T07:46:48;100458.66;;;9.09;52.37
70217;BME280;65567;55.684;37.570;2024-03-02T07:49:17;100455.88;;;9.15;51.80
70217;BME280;65567;55.684;37.570;2024-03-02T07:51:43;100456.47;;;9.26;52.05
70217;BME280;65567;55.684;37.570;2024-03-02T07:54:09;100452.19;;;9.57;51.45
70217;BME280;65567;55.684;37.570;2024-03-02T07:56:38;100451.75;;;9.72;50.18
70217;BME280;65567;55.684;37.570;2024-03-02T07:59:04;100445.16;;;9.90;49.80
70217;BME280;65567;55.684;37.570;2024-03-02T08:01:30;100449.28;;;9.99;49.26
70217;BME280;65567;55.684;37.570;2024-03-02T08:04:01;100449.13;;;10.04;48.53
70217;BME280;65567;55.684;37.570;2024-03-02T08:06:29;100455.50;;;9.95;48.52
70217;BME280;65567;55.684;37.570;2024-03-02T08:08:58;100458.53;;;10.11;48.17
70217;BME280;65567;55.684;37.570;2024-03-02T08:11:25;100450.47;;;10.19;48.09
70217;BME280;65567;55.684;37.570;2024-03-02T08:13:50;100451.75;;;10.34;47.77
70217;BME280;65567;55.684;37.570;2024-03-02T08:16:18;100447.84;;;10.77;47.89
70217;BME280;65567;55.684;37.570;2024-03-02T08:18:48;100441.75;;;11.30;45.95
70217;BME280;65567;55.684;37.570;2024-03-02T08:21:14;100445.28;;;11.78;45.60
70217;BME280;65567;55.684;37.570;2024-03-02T08:23:41;100445.91;;;12.10;43.75
70217;BME280;65567;55.684;37.570;2024-03-02T08:26:09;100447.75;;;12.54;43.61
70217;BME280;65567;55.684;37.570;2024-03-02T08:28:38;100437.16;;;12.78;42.43
70217;BME280;65567;55.684;37.570;2024-03-02T08:31:06;100446.06;;;13.18;41.50
70217;BME280;65567;55.684;37.570;2024-03-02T08:33:32;100440.63;;;13.43;40.18
70217;BME280;65567;55.684;37.570;2024-03-02T08:35:59;100441.53;;;13.63;40.19
70217;BME280;65567;55.684;37.570;2024-03-02T08:38:25;100447.16;;;13.95;39.64
70217;BME280;65567;55.684;37.570;2024-03-02T08:40:50;100452.78;;;14.06;39.96
70217;BME280;65567;55.684;37.570;2024-03-02T08:43:16;100455.63;;;14.59;38.50
70217;BME280;65567;55.684;37.570;2024-03-02T08:45:42;100453.38;;;14.87;37.38
70217;BME280;65567;55.684;37.570;2024-03-02T08:48:10;100453.78;;;14.97;37.04
70217;BME280;65567;55.684;37.570;2024-03-02T08:50:36;100449.06;;;15.04;36.18
70217;BME280;65567;55.684;37.570;2024-03-02T08:53:03;100450.13;;;15.17;36.41
70217;BME280;65567;55.684;37.570;2024-03-02T08:55:29;100440.84;;;15.10;36.55
70217;BME280;65567;55.684;37.570;2024-03-02T08:57:58;100442.84;;;15.05;36.27
70217;BME280;65567;55.684;37.570;2024-03-02T09:00:23;100445.31;;;14.91;36.34
70217;BME280;65567;55.684;37.570;2024-03-02T09:02:50;100452.72;;;14.65;36.77
70217;BME280;65567;55.684;37.570;2024-03-02T09:05:16;100445.16;;;14.57;36.34
70217;BME280;65567;55.684;37.570;2024-03-02T09:07:41;100438.59;;;14.28;36.98
70217;BME280;65567;55.684;37.570;2024-03-02T09:10:08;100444.50;;;14.33;36.78
70217;BME280;65567;55.684;37.570;2024-03-02T09:12:34;100442.69;;;13.97;36.84
70217;BME280;65567;55.684;37.570;2024-03-02T09:15:01;100428.09;;;13.69;37.79
70217;BME280;65567;55.684;37.570;2024-03-02T09:17:28;100425.84;;;13.80;37.61
70217;BME280;65567;55.684;37.570;2024-03-02T09:19:54;100432.59;;;13.86;37.53
70217;BME280;65567;55.684;37.570;2024-03-02T09:22:20;100438.22;;;13.78;37.36
70217;BME280;65567;55.684;37.570;2024-03-02T09:24:46;100433.91;;;13.77;37.55
70217;BME280;65567;55.684;37.570;2024-03-02T09:27:11;100426.38;;;13.68;37.63
70217;BME280;65567;55.684;37.570;2024-03-02T09:29:37;100425.88;;;13.60;37.80
70217;BME280;65567;55.684;37.570;2024-03-02T09:32:07;100421.34;;;13.63;37.75
70217;BME280;65567;55.684;37.570;2024-03-02T09:34:32;100422.72;;;13.72;37.92
70217;BME280;65567;55.684;37.570;2024-03-02T09:36:59;100420.06;;;13.91;37.86
70217;BME280;65567;55.684;37.570;2024-03-02T09:39:25;100434.47;;;13.84;38.00
70217;BME280;65567;55.684;37.570;2024-03-02T09:41:51;100425.34;;;13.72;37.84
70217;BME280;65567;55.684;37.570;2024-03-02T09:44:17;100420.47;;;13.63;37.70
70217;BME280;65567;55.684;37.570;2024-03-02T09:46:49;100427.13;;;13.51;37.87
70217;BME280;65567;55.684;37.570;2024-03-02T09:49:15;100412.09;;;13.32;38.04
70217;BME280;65567;55.684;37.570;2024-03-02T09:51:47;100422.97;;;13.25;38.41
70217;BME280;65567;55.684;37.570;2024-03-02T09:54:13;100422.69;;;13.10;38.35
70217;BME280;65567;55.684;37.570;2024-03-02T09:56:39;100435.31;;;13.02;38.61
70217;BME280;65567;55.684;37.570;2024-03-02T09:59:05;100427.25;;;12.84;38.86
70217;BME280;65567;55.684;37.570;2024-03-02T10:01:31;100430.03;;;12.81;38.58
70217;BME280;65567;55.684;37.570;2024-03-02T10:03:59;100423.13;;;12.56;39.32
70217;BME280;65567;55.684;37.570;2024-03-02T10:06:26;100420.44;;;12.36;39.91
70217;BME280;65567;55.684;37.570;2024-03-02T10:08:53;100418.69;;;12.13;40.02
70217;BME280;65567;55.684;37.570;2024-03-02T10:11:40;100415.75;;;12.20;40.46
70217;BME280;65567;55.684;37.570;2024-03-02T10:14:13;100417.56;;;12.18;40.91
70217;BME280;65567;55.684;37.570;2024-03-02T10:16:41;100433.13;;;12.25;40.35
70217;BME280;65567;55.684;37.570;2024-03-02T10:19:23;100421.16;;;12.17;40.77
70217;BME280;65567;55.684;37.570;2024-03-02T10:21:53;100425.78;;;12.33;40.16
70217;BME280;65567;55.684;37.570;2024-03-02T10:24:19;100424.56;;;12.19;40.57
70217;BME280;65567;55.684;37.570;2024-03-02T10:26:46;100414.75;;;12.01;40.77
70217;BME280;65567;55.684;37.570;2024-03-02T10:29:12;100420.19;;;11.95;40.65
70217;BME280;65567;55.684;37.570;2024-03-02T10:31:39;100422.13;;;11.66;41.01
70217;BME280;65567;55.684;37.570;2024-03-02T10:34:10;100417.28;;;11.55;41.40
70217;BME280;65567;55.684;37.570;2024-03-02T10:36:37;100431.00;;;11.38;42.49
70217;BME280;65567;55.684;37.570;2024-03-02T10:39:04;100423.25;;;11.58;41.71
70217;BME280;65567;55.684;37.570;2024-03-02T10:41:36;100430.13;;;11.63;41.37
70217;BME280;65567;55.684;37.570;2024-03-02T10:44:03;100433.25;;;11.72;41.13
70217;BME280;65567;55.684;37.570;2024-03-02T10:46:34;100429.94;;;11.67;41.41
70217;BME280;65567;55.684;37.570;2024-03-02T10:49:03;100432.84;;;11.83;41.15
70217;BME280;65567;55.684;37.570;2024-03-02T10:51:32;100430.28;;;11.82;41.59
70217;BME280;65567;55.684;37.570;2024-03-02T10:53:59;100414.31;;;11.88;41.26
70217;BME280;65567;55.684;37.570;2024-03-02T10:56:39;100436.50;;;12.04;41.15
70217;BME280;65567;55.684;37.570;2024-03-02T11:01:34;100434.09;;;12.44;40.01
70217;BME280;65567;55.684;37.570;2024-03-02T11:04:04;100434.63;;;12.54;39.98
70217;BME280;65567;55.684;37.570;2024-03-02T11:06:35;100431.41;;;12.68;39.65
70217;BME280;65567;55.684;37.570;2024-03-02T11:09:06;100438.31;;;12.93;39.05
70217;BME280;65567;55.684;37.570;2024-03-02T11:11:37;100432.09;;;12.73;38.94
70217;BME280;65567;55.684;37.570;2024-03-02T11:14:04;100433.13;;;12.69;39.21
70217;BME280;65567;55.684;37.570;2024-03-02T11:16:35;100433.03;;;12.50;39.38
70217;BME280;65567;55.684;37.570;2024-03-02T11:19:12;100430.81;;;12.39;39.13
70217;BME280;65567;55.684;37.570;2024-03-02T11:21:39;100420.03;;;12.23;40.18
70217;BME280;65567;55.684;37.570;2024-03-02T11:26:53;100422.16;;;12.37;39.50
70217;BME280;65567;55.684;37.570;2024-03-02T11:32:21;100431.69;;;12.39;39.28
70217;BME280;65567;55.684;37.570;2024-03-02T11:34:49;100427.50;;;12.34;39.18
70217;BME280;65567;55.684;37.570;2024-03-02T11:37:18;100426.50;;;12.14;39.61
70217;BME280;65567;55.684;37.570;2024-03-02T11:39:50;100423.72;;;11.94;40.10
70217;BME280;65567;55.684;37.570;2024-03-02T11:42:16;100415.41;;;11.82;40.17
70217;BME280;65567;55.684;37.570;2024-03-02T11:44:45;100416.06;;;11.64;41.25
70217;BME280;65567;55.684;37.570;2024-03-02T11:47:13;100413.16;;;11.71;40.84
70217;BME280;65567;55.684;37.570;2024-03-02T11:49:50;100402.03;;;11.65;40.34
70217;BME280;65567;55.684;37.570;2024-03-02T11:52:20;100408.31;;;11.61;40.26
70217;BME280;65567;55.684;37.570;2024-03-02T11:54:48;100414.09;;;11.45;40.95
70217;BME280;65567;55.684;37.570;2024-03-02T11:57:20;100415.50;;;11.30;41.22
70217;BME280;65567;55.684;37.570;2024-03-02T11:59:49;100419.09;;;11.28;40.97
70217;BME280;65567;55.684;37.570;2024-03-02T12:02:21;100416.94;;;11.14;41.11
70217;BME280;65567;55.684;37.570;2024-03-02T12:04:48;100418.34;;;10.97;41.33
70217;BME280;65567;55.684;37.570;2024-03-02T12:07:22;100404.97;;;10.80;41.69
70217;BME280;65567;55.684;37.570;2024-03-02T12:09:49;100406.72;;;10.79;41.93
70217;BME280;65567;55.684;37.570;2024-03-02T12:12:24;100406.41;;;10.88;41.91
70217;BME280;65567;55.684;37.570;2024-03-02T12:14:53;100403.00;;;10.86;41.93
70217;BME280;65567;55.684;37.570;2024-03-02T12:17:21;100408.22;;;10.86;42.31
70217;BME280;65567;55.684;37.570;2024-03-02T12:19:48;100406.72;;;10.52;42.47
70217;BME280;65567;55.684;37.570;2024-03-02T12:22:14;100413.75;;;10.20;43.19
70217;BME280;65567;55.684;37.570;2024-03-02T12:24:44;100406.19;;;10.11;43.38
70217;BME280;65567;55.684;37.570;2024-03-02T12:27:12;100413.09;;;10.14;43.09
70217;BME280;65567;55.684;37.570;2024-03-02T12:29:38;100410.53;;;10.12;43.06
70217;BME280;65567;55.684;37.570;2024-03-02T12:32:05;100409.06;;;10.02;43.27
70217;BME280;65567;55.684;37.570;2024-03-02T12:34:31;100416.19;;;9.97;42.92
70217;BME280;65567;55.684;37.570;2024-03-02T12:36:57;100428.66;;;9.88;42.61
70217;BME280;65567;55.684;37.570;2024-03-02T12:39:23;100410.78;;;9.73;42.42
70217;BME280;65567;55.684;37.570;2024-03-02T12:41:52;100416.50;;;9.54;42.81
70217;BME280;65567;55.684;37.570;2024-03-02T12:44:19;100413.03;;;9.54;42.84
70217;BME280;65567;55.684;37.570;2024-03-02T12:46:46;100411.41;;;9.50;42.88
70217;BME280;65567;55.684;37.570;2024-03-02T12:49:13;100405.41;;;9.46;42.64
70217;BME280;65567;55.684;37.570;2024-03-02T12:51:41;100409.81;;;9.44;42.53
70217;BME280;65567;55.684;37.570;2024-03-02T12:54:10;100407.03;;;9.50;42.84
70217;BME280;65567;55.684;37.570;2024-03-02T12:56:41;100400.91;;;9.51;42.56
70217;BME280;65567;55.684;37.570;2024-03-02T12:59:21;100415.50;;;9.60;41.52
70217;BME280;65567;55.684;37.570;2024-03-02T13:01:55;100414.91;;;9.49;41.09